createdAt,value
2019-01-12T00:00:50.948Z,96119.94
2019-01-12T00:03:41.021Z,96114.94
2019-01-12T00:06:31.173Z,96124.95
2019-01-12T00:09:21.248Z,96113.41
2019-01-12T00:12:10.788Z,96120.88
2019-01-12T00:15:01.591Z,96113.80
2019-01-12T00:17:51.328Z,96116.56
2019-01-12T00:20:41.145Z,96118.45
2019-01-12T00:23:30.912Z,96119.73
2019-01-12T00:26:20.628Z,96122.23
2019-01-12T00:29:10.136Z,96122.16
2019-01-12T00:31:59.689Z,96124.04
2019-01-12T00:34:49.646Z,96128.72
2019-01-12T00:37:39.431Z,96122.05
2019-01-12T00:40:29.345Z,96132.73
2019-01-12T00:43:19.144Z,96132.42
2019-01-12T00:46:09.362Z,96132.06
2019-01-12T00:48:59.386Z,96128.80
2019-01-12T00:51:48.985Z,96131.64
2019-01-12T00:54:38.906Z,96131.81
2019-01-12T00:57:29.844Z,96138.14
2019-01-12T01:00:42.150Z,96141.36
2019-01-12T01:03:32.315Z,96144.73
2019-01-12T01:06:23.096Z,96143.41
2019-01-12T01:09:32.295Z,96147.55
2019-01-12T01:12:22.007Z,96147.55
2019-01-12T01:15:30.761Z,96153.34
2019-01-12T01:18:20.549Z,96153.34
2019-01-12T01:21:10.936Z,96166.02
2019-01-12T01:24:00.779Z,96165.73
2019-01-12T01:27:09.472Z,96176.63
2019-01-12T01:29:58.928Z,96176.63
2019-01-12T01:32:48.972Z,96169.98
2019-01-12T01:35:38.560Z,96172.05
2019-01-12T01:38:47.255Z,96167.45
2019-01-12T01:41:36.793Z,96167.45
2019-01-12T01:44:26.820Z,96168.94
2019-01-12T01:47:17.021Z,96177.42
2019-01-12T01:50:07.669Z,96172.55
2019-01-12T01:52:57.270Z,96173.73
2019-01-12T01:55:46.987Z,96179.20
2019-01-12T01:58:36.688Z,96185.95
2019-01-12T02:01:26.780Z,96181.75
2019-01-12T02:04:16.825Z,96173.31
2019-01-12T02:07:06.855Z,96182.83
2019-01-12T02:10:34.659Z,96176.69
2019-01-12T02:13:24.742Z,96176.69
2019-01-12T02:16:14.522Z,96184.36
2019-01-12T02:19:04.143Z,96177.22
2019-01-12T02:21:54.139Z,96177.22
2019-01-12T02:24:43.602Z,96166.10
2019-01-12T02:27:52.276Z,96168.41
2019-01-12T02:30:43.238Z,96168.41
2019-01-12T02:33:44.894Z,96169.90
2019-01-12T02:36:35.296Z,96169.90
2019-01-12T02:39:25.350Z,96174.45
2019-01-12T02:42:15.935Z,96160.95
2019-01-12T02:45:45.662Z,96160.95
2019-01-12T02:48:56.296Z,96164.14
2019-01-12T02:51:45.875Z,96164.14
2019-01-12T02:54:35.336Z,96163.54
2019-01-12T02:57:24.866Z,96163.54
2019-01-12T03:00:17.114Z,96167.77
2019-01-12T03:03:07.215Z,96168.05
2019-01-12T03:05:56.741Z,96159.91
2019-01-12T03:08:46.442Z,96159.09
2019-01-12T03:11:36.326Z,96153.63
2019-01-12T03:14:26.225Z,96153.63
2019-01-12T03:17:35.266Z,96156.56
2019-01-12T03:20:44.005Z,96150.63
2019-01-12T03:23:34.725Z,96157.98
2019-01-12T03:26:26.091Z,96157.98
2019-01-12T03:29:29.532Z,96154.82
2019-01-12T03:32:30.767Z,96162.85
2019-01-12T03:35:20.845Z,96156.81
2019-01-12T03:38:29.954Z,96148.27
2019-01-12T03:41:20.161Z,96148.27
2019-01-12T03:44:10.103Z,96150.61
2019-01-12T03:46:59.557Z,96150.61
2019-01-12T03:53:25.376Z,96150.88
2019-01-12T03:56:15.277Z,96155.53
2019-01-12T03:59:05.041Z,96138.17
2019-01-12T04:02:14.123Z,96150.14
2019-01-12T04:05:04.041Z,96143.50
2019-01-12T04:08:12.815Z,96139.80
2019-01-12T04:11:02.551Z,96139.80
2019-01-12T04:13:52.191Z,96140.12
2019-01-12T04:16:42.003Z,96140.12
2019-01-12T04:19:32.303Z,96135.00
2019-01-12T04:22:22.332Z,96141.20
2019-01-12T04:25:12.175Z,96139.44
2019-01-12T04:28:01.737Z,96132.24
2019-01-12T04:30:51.816Z,96136.87
2019-01-12T04:33:41.564Z,96136.87
2019-01-12T04:36:50.220Z,96137.52
2019-01-12T04:39:40.420Z,96139.11
2019-01-12T04:42:30.608Z,96139.11
2019-01-12T04:45:39.270Z,96131.98
2019-01-12T04:48:48.005Z,96135.23
2019-01-12T04:51:37.522Z,96130.45
2019-01-12T04:54:27.231Z,96130.45
2019-01-12T04:57:35.960Z,96123.81
2019-01-12T05:00:25.823Z,96123.81
2019-01-12T05:03:34.738Z,96112.11
2019-01-12T05:06:24.153Z,96112.11
2019-01-12T05:09:14.160Z,96115.95
2019-01-12T05:12:03.906Z,96119.58
2019-01-12T05:14:54.074Z,96118.53
2019-01-12T05:17:43.940Z,96123.77
2019-01-12T05:20:33.775Z,96123.77
2019-01-12T05:23:35.035Z,96119.69
2019-01-12T05:26:36.217Z,96125.64
2019-01-12T05:29:25.900Z,96125.64
2019-01-12T05:32:34.813Z,96119.09
2019-01-12T05:35:43.470Z,96123.64
2019-01-12T05:38:33.259Z,96123.64
2019-01-12T05:41:23.115Z,96120.15
2019-01-12T05:44:13.100Z,96126.22
2019-01-12T05:47:02.554Z,96122.59
2019-01-12T05:49:52.000Z,96122.59
2019-01-12T05:53:00.819Z,96135.92
2019-01-12T05:55:57.039Z,96135.92
2019-01-12T05:58:41.899Z,96133.25
2019-01-12T06:01:50.904Z,96128.61
2019-01-12T06:04:41.393Z,96128.61
2019-01-12T06:07:50.220Z,96148.31
2019-01-12T06:10:40.202Z,96145.18
2019-01-12T06:13:29.989Z,96145.18
2019-01-12T06:16:20.400Z,96149.85
2019-01-12T06:19:10.361Z,96143.80
2019-01-12T06:22:00.048Z,96148.09
2019-01-12T06:25:08.791Z,96142.75
2019-01-12T06:27:58.545Z,96142.75
2019-01-12T06:30:49.074Z,96158.00
2019-01-12T06:33:38.834Z,96158.00
2019-01-12T06:36:28.489Z,96154.28
2019-01-12T06:39:18.498Z,96143.69
2019-01-12T06:42:08.484Z,96150.31
2019-01-12T06:44:58.128Z,96164.91
2019-01-12T06:47:48.635Z,96155.91
2019-01-12T06:50:38.676Z,96155.61
2019-01-12T06:53:28.367Z,96162.61
2019-01-12T06:56:18.302Z,96157.30
2019-01-12T06:59:08.234Z,96157.30
2019-01-12T07:01:58.221Z,96154.85
2019-01-12T07:04:48.260Z,96154.85
2019-01-12T07:07:38.021Z,96158.78
2019-01-12T07:10:45.577Z,96155.44
2019-01-12T07:13:54.230Z,96143.41
2019-01-12T07:16:44.022Z,96143.41
2019-01-12T07:19:33.930Z,96140.89
2019-01-12T07:22:23.727Z,96149.98
2019-01-12T07:25:35.166Z,96159.34
2019-01-12T07:28:44.470Z,96156.55
2019-01-12T07:31:53.134Z,96152.59
2019-01-12T07:34:43.446Z,96152.59
2019-01-12T07:37:34.141Z,96144.05
2019-01-12T07:40:24.635Z,96157.95
2019-01-12T07:43:14.777Z,96157.20
2019-01-12T07:46:05.022Z,96151.49
2019-01-12T07:48:55.565Z,96155.97
2019-01-12T07:51:45.514Z,96159.51
2019-01-12T07:54:35.483Z,96157.30
2019-01-12T07:57:24.937Z,96151.12
2019-01-12T08:00:36.560Z,96151.12
2019-01-12T08:03:26.157Z,96148.44
2019-01-12T08:06:15.956Z,96156.02
2019-01-12T08:09:08.551Z,96156.02
2019-01-12T08:11:58.749Z,96161.14
2019-01-12T08:14:49.136Z,96159.05
2019-01-12T08:17:39.538Z,96166.19
2019-01-12T08:20:29.935Z,96166.19
2019-01-12T08:23:19.618Z,96162.30
2019-01-12T08:26:31.345Z,96152.78
2019-01-12T08:29:21.643Z,96152.78
2019-01-12T08:32:30.341Z,96168.52
2019-01-12T08:35:20.528Z,96169.88
2019-01-12T08:38:11.535Z,96169.88
2019-01-12T08:41:01.357Z,96166.66
2019-01-12T08:43:51.897Z,96161.91
2019-01-12T08:47:00.657Z,96167.97
2019-01-12T08:49:50.114Z,96167.97
2019-01-12T08:52:40.224Z,96175.78
2019-01-12T08:55:29.999Z,96169.10
2019-01-12T08:58:19.505Z,96173.88
2019-01-12T09:01:09.106Z,96174.00
2019-01-12T09:03:59.493Z,96167.94
2019-01-12T09:06:49.241Z,96143.81
2019-01-12T09:09:38.831Z,96162.61
2019-01-12T09:12:28.347Z,96180.44
2019-01-12T09:15:18.203Z,96170.66
2019-01-12T09:18:08.042Z,96176.59
2019-01-12T09:20:59.004Z,96170.77
2019-01-12T09:23:49.406Z,96164.50
2019-01-12T09:26:44.880Z,96170.88
2019-01-12T09:29:31.505Z,96161.67
2019-01-12T09:32:21.307Z,96160.17
2019-01-12T09:35:30.232Z,96155.05
2019-01-12T09:38:20.676Z,96155.05
2019-01-12T09:41:10.197Z,96164.14
2019-01-12T09:44:00.009Z,96166.36
2019-01-12T09:46:49.432Z,96155.74
2019-01-12T09:49:38.880Z,96159.37
2019-01-12T09:52:28.876Z,96155.05
2019-01-12T09:55:18.321Z,96145.37
2019-01-12T09:58:08.271Z,96141.76
2019-01-12T10:00:57.803Z,96145.14
2019-01-12T10:03:47.825Z,96143.49
2019-01-12T10:06:39.349Z,96142.59
2019-01-12T10:09:28.850Z,96140.11
2019-01-12T10:12:18.722Z,96137.09
2019-01-12T10:15:08.937Z,96126.70
2019-01-12T10:17:59.271Z,96139.18
2019-01-12T10:20:49.175Z,96126.14
2019-01-12T10:23:38.830Z,96121.82
2019-01-12T10:26:29.155Z,96120.30
2019-01-12T10:29:18.674Z,96118.42
2019-01-12T10:32:08.563Z,96116.56
2019-01-12T10:34:59.303Z,96113.98
2019-01-12T10:37:49.381Z,96119.59
2019-01-12T10:40:39.286Z,96121.91
2019-01-12T10:43:28.950Z,96110.27
2019-01-12T10:46:18.730Z,96109.91
2019-01-12T10:49:08.507Z,96109.91
2019-01-12T10:51:58.972Z,96111.67
2019-01-12T10:54:49.154Z,96114.00
2019-01-12T10:57:57.957Z,96099.98
2019-01-12T11:00:47.800Z,96099.98
2019-01-12T11:03:38.533Z,96089.73
2019-01-12T11:06:29.643Z,96102.11
2019-01-12T11:09:19.364Z,96090.45
2019-01-12T11:12:08.893Z,96086.46
2019-01-12T11:14:58.701Z,96084.71
2019-01-12T11:18:27.884Z,96079.67
2019-01-12T11:21:17.638Z,96083.15
2019-01-12T11:24:07.635Z,96068.09
2019-01-12T11:26:58.135Z,96068.09
2019-01-12T11:29:48.228Z,96066.41
2019-01-12T11:32:38.255Z,96067.79
2019-01-12T11:35:28.025Z,96062.19
2019-01-12T11:38:18.427Z,96060.87
2019-01-12T11:41:10.023Z,96062.97
2019-01-12T11:43:59.966Z,96053.54
2019-01-12T11:46:50.270Z,96047.77
2019-01-12T11:49:40.450Z,96040.84
2019-01-12T11:52:30.383Z,96048.11
2019-01-12T11:55:20.982Z,96028.03
2019-01-12T11:58:09.691Z,96026.78
2019-01-12T12:00:59.280Z,96017.33
2019-01-12T12:03:49.146Z,96010.77
2019-01-12T12:06:38.975Z,96003.28
2019-01-12T12:09:28.978Z,95996.16
2019-01-12T12:12:19.244Z,95990.17
2019-01-12T12:15:10.400Z,95983.11
2019-01-12T12:18:01.080Z,95983.63
2019-01-12T12:20:51.186Z,95977.41
2019-01-12T12:23:41.487Z,95970.55
2019-01-12T12:26:32.051Z,95954.98
2019-01-12T12:29:21.621Z,95951.73
2019-01-12T12:32:11.515Z,95944.44
2019-01-12T12:35:01.693Z,95941.79
2019-01-12T12:37:52.655Z,95947.83
2019-01-12T12:40:43.165Z,95942.81
2019-01-12T12:43:33.028Z,95948.35
2019-01-12T12:46:23.420Z,95941.66
2019-01-12T12:49:12.145Z,95937.59
2019-01-12T12:52:04.219Z,95931.66
2019-01-12T12:54:53.873Z,95937.28
2019-01-12T12:58:23.620Z,95934.62
2019-01-12T13:01:13.467Z,95928.62
2019-01-12T13:04:03.623Z,95929.67
2019-01-12T13:06:53.518Z,95926.66
2019-01-12T13:09:43.649Z,95919.05
2019-01-12T13:12:33.927Z,95917.23
2019-01-12T13:15:24.321Z,95911.81
2019-01-12T13:18:14.864Z,95908.98
2019-01-12T13:21:45.256Z,95904.92
2019-01-12T13:24:34.942Z,95905.00
2019-01-12T13:27:25.068Z,95895.34
2019-01-12T13:30:35.062Z,95890.34
2019-01-12T13:34:08.402Z,95873.95
2019-01-12T13:36:58.463Z,95867.89
2019-01-12T13:39:48.842Z,95858.06
2019-01-12T13:42:43.937Z,95852.05
2019-01-12T13:45:53.978Z,95856.56
2019-01-12T13:48:44.081Z,95856.66
2019-01-12T13:51:33.854Z,95868.14
2019-01-12T13:54:33.570Z,95867.17
2019-01-12T13:57:23.308Z,95869.14
2019-01-12T14:00:34.311Z,95875.03
2019-01-12T14:03:24.345Z,95870.11
2019-01-12T14:06:14.344Z,95883.16
2019-01-12T14:09:16.373Z,95885.85
2019-01-12T14:12:05.989Z,95881.39
2019-01-12T14:14:56.326Z,95882.94
2019-01-12T14:17:49.557Z,95882.75
2019-01-12T14:20:40.443Z,95872.32
2019-01-12T14:23:30.080Z,95880.98
2019-01-12T14:26:19.821Z,95886.33
2019-01-12T14:29:09.370Z,95885.78
2019-01-12T14:31:59.662Z,95886.38
2019-01-12T14:34:49.477Z,95889.50
2019-01-12T14:37:39.760Z,95888.27
2019-01-12T14:40:30.010Z,95884.63
2019-01-12T14:43:19.709Z,95871.83
2019-01-12T14:46:09.697Z,95869.95
2019-01-12T14:48:59.382Z,95854.90
2019-01-12T14:51:49.379Z,95865.09
2019-01-12T14:54:39.559Z,95859.95
2019-01-12T14:57:29.542Z,95850.48
2019-01-12T15:00:25.088Z,95848.39
2019-01-12T15:03:15.920Z,95847.50
2019-01-12T15:06:05.741Z,95835.09
2019-01-12T15:08:55.749Z,95834.88
2019-01-12T15:11:45.790Z,95837.10
2019-01-12T15:14:36.195Z,95831.28
2019-01-12T15:17:26.084Z,95833.17
2019-01-12T15:20:35.332Z,95825.00
2019-01-12T15:23:25.087Z,95822.58
2019-01-12T15:26:15.097Z,95827.41
2019-01-12T15:29:04.903Z,95812.22
2019-01-12T15:31:54.830Z,95814.41
2019-01-12T15:34:44.337Z,95809.27
2019-01-12T15:37:53.154Z,95812.83
2019-01-12T15:40:42.972Z,95812.83
2019-01-12T15:43:33.268Z,95790.34
2019-01-12T15:46:23.130Z,95783.58
2019-01-12T15:49:12.626Z,95779.57
2019-01-12T15:52:02.673Z,95767.20
2019-01-12T15:54:52.585Z,95771.48
2019-01-12T15:57:42.389Z,95766.61
2019-01-12T16:00:32.521Z,95761.33
2019-01-12T16:03:22.911Z,95751.81
2019-01-12T16:06:13.096Z,95744.66
2019-01-12T16:09:03.542Z,95745.48
2019-01-12T16:11:53.268Z,95743.52
2019-01-12T16:14:43.767Z,95742.75
2019-01-12T16:17:33.470Z,95735.13
2019-01-12T16:20:25.494Z,95721.30
2019-01-12T16:23:14.187Z,95721.30
2019-01-12T16:26:04.001Z,95710.09
2019-01-12T16:28:53.443Z,95703.32
2019-01-12T16:31:43.217Z,95697.73
2019-01-12T16:34:33.489Z,95675.11
2019-01-12T16:37:23.648Z,95680.51
2019-01-12T16:40:16.299Z,95680.91
2019-01-12T16:43:06.012Z,95680.91
2019-01-12T16:45:56.359Z,95668.15
2019-01-12T16:48:46.402Z,95660.73
2019-01-12T16:51:36.414Z,95676.39
2019-01-12T16:54:25.501Z,95673.23
2019-01-12T16:57:15.294Z,95673.23
2019-01-12T17:00:07.519Z,95667.96
2019-01-12T17:02:59.549Z,95675.77
2019-01-12T17:05:49.309Z,95669.95
2019-01-12T17:08:39.623Z,95671.72
2019-01-12T17:11:29.140Z,95677.73
2019-01-12T17:14:18.891Z,95673.20
2019-01-12T17:17:08.830Z,95669.22
2019-01-12T17:19:58.539Z,95665.86
2019-01-12T17:22:48.776Z,95669.16
2019-01-12T17:25:38.612Z,95656.63
2019-01-12T17:28:28.295Z,95649.97
2019-01-12T17:31:19.202Z,95652.98
2019-01-12T17:34:11.344Z,95658.86
2019-01-12T17:37:01.591Z,95646.09
2019-01-12T17:39:53.417Z,95645.28
2019-01-12T17:42:43.855Z,95649.06
2019-01-12T17:45:33.627Z,95651.77
2019-01-12T17:48:24.153Z,95644.95
2019-01-12T17:51:14.007Z,95644.73
2019-01-12T17:57:33.783Z,95643.63
2019-01-12T18:03:28.932Z,95616.52
2019-01-12T18:06:18.908Z,95606.92
2019-01-12T18:09:09.476Z,95596.52
2019-01-12T18:12:02.525Z,95607.53
2019-01-12T18:14:53.079Z,95607.05
2019-01-12T18:17:43.377Z,95602.39
2019-01-12T18:20:34.485Z,95597.25
2019-01-12T18:23:24.562Z,95591.80
2019-01-12T18:26:14.160Z,95588.02
2019-01-12T18:29:04.389Z,95591.40
2019-01-12T18:31:55.066Z,95595.02
2019-01-12T18:34:45.474Z,95601.58
2019-01-12T18:37:35.335Z,95599.08
2019-01-12T18:40:25.213Z,95604.47
2019-01-12T18:43:15.943Z,95592.69
2019-01-12T18:46:12.057Z,95595.66
2019-01-12T18:48:59.434Z,95608.56
2019-01-12T18:51:49.033Z,95600.55
2019-01-12T18:54:39.044Z,95597.54
2019-01-12T18:57:29.301Z,95598.00
2019-01-12T19:00:20.931Z,95595.13
2019-01-12T19:03:11.737Z,95582.22
2019-01-12T19:06:20.603Z,95548.00
2019-01-12T19:09:29.843Z,95534.61
2019-01-12T19:12:20.364Z,95534.61
2019-01-12T19:15:32.266Z,95535.41
2019-01-12T19:18:23.078Z,95531.24
2019-01-12T19:21:34.879Z,95531.24
2019-01-12T19:24:25.641Z,95536.55
2019-01-12T19:27:15.544Z,95529.41
2019-01-12T19:30:24.342Z,95501.77
2019-01-12T19:33:14.426Z,95501.77
2019-01-12T19:36:04.147Z,95513.44
2019-01-12T19:38:53.909Z,95493.73
2019-01-12T19:42:03.474Z,95495.94
2019-01-12T19:45:12.775Z,95490.41
2019-01-12T19:48:03.621Z,95490.41
2019-01-12T19:50:54.916Z,95489.08
2019-01-12T19:53:44.949Z,95486.18
2019-01-12T19:56:34.506Z,95484.28
2019-01-12T19:59:24.289Z,95480.58
2019-01-12T20:02:33.201Z,95481.45
2019-01-12T20:05:42.102Z,95501.28
2019-01-12T20:08:51.805Z,95479.76
2019-01-12T20:11:42.139Z,95479.76
2019-01-12T20:14:31.633Z,95488.75
2019-01-12T20:17:21.690Z,95463.99
2019-01-12T20:20:12.720Z,95462.45
2019-01-12T20:23:21.895Z,95460.22
2019-01-12T20:26:11.878Z,95460.22
2019-01-12T20:29:21.484Z,95454.62
2019-01-12T20:32:57.245Z,95455.57
2019-01-12T20:36:23.993Z,95454.08
2019-01-12T20:39:41.493Z,95435.16
2019-01-12T20:43:09.375Z,95432.44
2019-01-12T20:46:37.472Z,95432.44
2019-01-12T20:49:58.200Z,95436.35
2019-01-12T20:53:26.002Z,95412.41
2019-01-12T20:56:38.541Z,95412.41
2019-01-12T21:00:06.950Z,95387.89
2019-01-12T21:03:08.684Z,95378.02
2019-01-12T21:06:32.543Z,95386.99
2019-01-12T21:10:00.578Z,95371.58
2019-01-12T21:13:28.372Z,95375.05
2019-01-12T21:16:22.779Z,95374.86
2019-01-12T21:19:12.453Z,95383.36
2019-01-12T21:22:02.613Z,95379.24
2019-01-12T21:24:52.785Z,95376.31
2019-01-12T21:27:42.445Z,95393.00
2019-01-12T21:30:51.087Z,95383.48
2019-01-12T21:33:40.512Z,95383.48
2019-01-12T21:36:30.347Z,95389.73
2019-01-12T21:39:38.981Z,95373.44
2019-01-12T21:42:28.752Z,95367.00
2019-01-12T21:45:18.465Z,95363.70
2019-01-12T21:48:07.974Z,95369.56
2019-01-12T21:50:57.681Z,95365.92
2019-01-12T21:53:47.189Z,95371.59
2019-01-12T21:56:56.198Z,95366.33
2019-01-12T22:03:33.326Z,95368.45
2019-01-12T22:06:22.978Z,95368.45
2019-01-12T22:09:31.909Z,95367.58
2019-01-12T22:12:21.880Z,95367.58
2019-01-12T22:18:26.172Z,95351.19
2019-01-12T22:21:34.976Z,95345.86
2019-01-12T23:02:37.221Z,95287.16
2019-01-12T23:05:27.143Z,95287.16
2019-01-12T23:08:36.129Z,95284.53
2019-01-12T23:11:25.891Z,95284.53
2019-01-12T23:14:15.669Z,95270.43
2019-01-12T23:17:45.260Z,95277.44
2019-01-12T23:20:36.413Z,95275.41
2019-01-12T23:23:26.197Z,95264.28
2019-01-12T23:26:34.933Z,95258.48
2019-01-12T23:29:24.441Z,95258.48
2019-01-12T23:32:14.581Z,95247.35
2019-01-12T23:38:20.911Z,95242.22
2019-01-12T23:41:30.525Z,95251.01
2019-01-12T23:44:19.939Z,95251.01
2019-01-12T23:47:10.241Z,95240.89
2019-01-12T23:50:00.292Z,95226.70
2019-01-12T23:52:49.755Z,95238.58
2019-01-12T23:55:39.236Z,95238.58
2019-01-12T23:58:47.878Z,95231.78
